sensor_id;sensor_type;location;lat;lon;timestamp;pressure;altitude;pressure_sealevel;temperature;humidity
9525;BME280;15940;48.734;9.112;2023-03-17T00:01:09;96307.28;;;3.64;73.14
9525;BME280;15940;48.734;9.112;2023-03-17T00:03:39;96309.50;;;3.66;72.56
9525;BME280;15940;48.734;9.112;2023-03-17T00:06:09;96305.34;;;3.65;72.18
9525;BME280;15940;48.734;9.112;2023-03-17T00:08:42;96309.50;;;3.66;72.27
9525;BME280;15940;48.734;9.112;2023-03-17T00:11:12;96296.84;;;3.66;72.82
9525;BME280;15940;48.734;9.112;2023-03-17T00:13:39;96294.16;;;3.66;72.39
9525;BME280;15940;48.734;9.112;2023-03-17T00:16:12;96290.16;;;3.71;72.37
9525;BME280;15940;48.734;9.112;2023-03-17T00:18:41;96286.00;;;3.70;72.33
9525;BME280;15940;48.734;9.112;2023-03-17T00:21:11;96280.31;;;3.68;72.00
9525;BME280;15940;48.734;9.112;2023-03-17T00:23:41;96284.66;;;3.75;71.95
9525;BME280;15940;48.734;9.112;2023-03-17T00:26:09;96276.91;;;3.77;71.95
9525;BME280;15940;48.734;9.112;2023-03-17T00:28:37;96273.34;;;3.80;72.71
9525;BME280;15940;48.734;9.112;2023-03-17T00:31:11;96273.47;;;3.85;72.61
9525;BME280;15940;48.734;9.112;2023-03-17T00:33:40;96259.34;;;3.85;72.17
9525;BME280;15940;48.734;9.112;2023-03-17T00:36:12;96264.13;;;3.90;71.45
9525;BME280;15940;48.734;9.112;2023-03-17T00:38:42;96267.66;;;3.96;71.93
9525;BME280;15940;48.734;9.112;2023-03-17T00:41:11;96265.88;;;3.93;71.48
9525;BME280;15940;48.734;9.112;2023-03-17T00:43:39;96262.63;;;3.98;71.41
9525;BME280;15940;48.734;9.112;2023-03-17T00:46:11;96266.03;;;3.98;70.87
9525;BME280;15940;48.734;9.112;2023-03-17T00:48:39;96261.41;;;3.99;70.63
9525;BME280;15940;48.734;9.112;2023-03-17T00:51:07;96265.59;;;4.00;70.86
9525;BME280;15940;48.734;9.112;2023-03-17T00:53:34;96255.59;;;4.00;70.46
9525;BME280;15940;48.734;9.112;2023-03-17T00:56:04;96260.34;;;4.06;70.62
9525;BME280;15940;48.734;9.112;2023-03-17T00:58:36;96248.88;;;4.14;70.74
9525;BME280;15940;48.734;9.112;2023-03-17T01:01:03;96249.16;;;4.16;70.07
9525;BME280;15940;48.734;9.112;2023-03-17T01:03:30;96244.69;;;4.13;70.48
9525;BME280;15940;48.734;9.112;2023-03-17T01:05:57;96242.19;;;4.10;69.92
9525;BME280;15940;48.734;9.112;2023-03-17T01:08:25;96234.28;;;4.06;70.38
9525;BME280;15940;48.734;9.112;2023-03-17T01:10:54;96233.72;;;4.02;70.34
9525;BME280;15940;48.734;9.112;2023-03-17T01:13:23;96234.88;;;4.10;70.88
9525;BME280;15940;48.734;9.112;2023-03-17T01:15:51;96224.63;;;4.09;70.33
9525;BME280;15940;48.734;9.112;2023-03-17T01:18:20;96217.72;;;4.17;71.06
9525;BME280;15940;48.734;9.112;2023-03-17T01:20:47;96234.56;;;4.26;71.25
9525;BME280;15940;48.734;9.112;2023-03-17T01:23:15;96220.84;;;4.24;69.54
9525;BME280;15940;48.734;9.112;2023-03-17T01:25:42;96222.19;;;4.29;69.09
9525;BME280;15940;48.734;9.112;2023-03-17T01:28:13;96211.75;;;4.31;68.51
9525;BME280;15940;48.734;9.112;2023-03-17T01:30:43;96210.03;;;4.43;68.02
9525;BME280;15940;48.734;9.112;2023-03-17T01:33:11;96206.31;;;4.49;67.29
9525;BME280;15940;48.734;9.112;2023-03-17T01:35:40;96201.06;;;4.55;66.34
9525;BME280;15940;48.734;9.112;2023-03-17T01:38:08;96199.09;;;4.65;66.79
9525;BME280;15940;48.734;9.112;2023-03-17T01:40:42;96195.47;;;4.68;66.58
9525;BME280;15940;48.734;9.112;2023-03-17T01:43:20;96195.03;;;4.69;66.09
9525;BME280;15940;48.734;9.112;2023-03-17T01:46:26;96197.38;;;4.76;65.29
9525;BME280;15940;48.734;9.112;2023-03-17T01:49:04;96197.38;;;4.76;65.50
9525;BME280;15940;48.734;9.112;2023-03-17T01:51:37;96191.81;;;4.80;65.17
9525;BME280;15940;48.734;9.112;2023-03-17T01:54:09;96186.19;;;4.78;65.15
9525;BME280;15940;48.734;9.112;2023-03-17T01:56:42;96181.84;;;4.80;65.12
9525;BME280;15940;48.734;9.112;2023-03-17T01:59:16;96177.94;;;4.81;64.79
9525;BME280;15940;48.734;9.112;2023-03-17T02:01:48;96182.56;;;4.81;65.66
9525;BME280;15940;48.734;9.112;2023-03-17T02:04:17;96182.03;;;4.77;65.31
9525;BME280;15940;48.734;9.112;2023-03-17T02:06:46;96188.41;;;4.79;65.37
9525;BME280;15940;48.734;9.112;2023-03-17T02:09:15;96180.06;;;4.77;66.35
9525;BME280;15940;48.734;9.112;2023-03-17T02:11:43;96186.66;;;4.76;66.93
9525;BME280;15940;48.734;9.112;2023-03-17T02:14:11;96184.84;;;4.73;65.92
9525;BME280;15940;48.734;9.112;2023-03-17T02:16:38;96184.13;;;4.73;65.45
9525;BME280;15940;48.734;9.112;2023-03-17T02:19:06;96183.38;;;4.72;66.26
9525;BME280;15940;48.734;9.112;2023-03-17T02:21:39;96187.44;;;4.68;65.94
9525;BME280;15940;48.734;9.112;2023-03-17T02:24:23;96184.41;;;4.75;64.89
9525;BME280;15940;48.734;9.112;2023-03-17T02:26:54;96182.13;;;4.82;63.96
9525;BME280;15940;48.734;9.112;2023-03-17T02:29:22;96180.16;;;4.83;63.76
9525;BME280;15940;48.734;9.112;2023-03-17T02:31:49;96185.66;;;4.88;64.99
9525;BME280;15940;48.734;9.112;2023-03-17T02:34:17;96180.16;;;4.83;63.68
9525;BME280;15940;48.734;9.112;2023-03-17T02:36:45;96182.13;;;4.82;63.06
9525;BME280;15940;48.734;9.112;2023-03-17T02:39:12;96176.59;;;4.86;62.74
9525;BME280;15940;48.734;9.112;2023-03-17T02:41:39;96177.81;;;4.85;62.74
9525;BME280;15940;48.734;9.112;2023-03-17T02:44:06;96165.88;;;4.86;62.23
9525;BME280;15940;48.734;9.112;2023-03-17T02:46:33;96171.97;;;4.86;61.74
9525;BME280;15940;48.734;9.112;2023-03-17T02:49:00;96166.25;;;4.94;61.98
9525;BME280;15940;48.734;9.112;2023-03-17T02:51:28;96174.00;;;4.92;62.14
9525;BME280;15940;48.734;9.112;2023-03-17T02:53:56;96163.00;;;4.90;61.76
9525;BME280;15940;48.734;9.112;2023-03-17T02:56:23;96158.56;;;4.86;62.35
9525;BME280;15940;48.734;9.112;2023-03-17T02:58:50;96164.38;;;4.85;61.93
9525;BME280;15940;48.734;9.112;2023-03-17T03:01:17;96155.41;;;4.88;62.21
9525;BME280;15940;48.734;9.112;2023-03-17T03:03:45;96158.38;;;4.90;62.83
9525;BME280;15940;48.734;9.112;2023-03-17T03:06:13;96166.25;;;4.94;61.41
9525;BME280;15940;48.734;9.112;2023-03-17T03:08:40;96164.31;;;4.94;60.82
9525;BME280;15940;48.734;9.112;2023-03-17T03:11:08;96156.09;;;4.98;61.36
9525;BME280;15940;48.734;9.112;2023-03-17T03:13:35;96155.63;;;4.99;61.64
9525;BME280;15940;48.734;9.112;2023-03-17T03:16:03;96152.66;;;4.97;61.19
9525;BME280;15940;48.734;9.112;2023-03-17T03:18:30;96160.44;;;4.95;60.85
9525;BME280;15940;48.734;9.112;2023-03-17T03:20:57;96158.66;;;4.92;61.16
9525;BME280;15940;48.734;9.112;2023-03-17T03:23:24;96156.44;;;4.91;60.84
9525;BME280;15940;48.734;9.112;2023-03-17T03:25:52;96146.91;;;4.90;61.45
9525;BME280;15940;48.734;9.112;2023-03-17T03:28:20;96157.81;;;4.86;60.69
9525;BME280;15940;48.734;9.112;2023-03-17T03:30:47;96154.84;;;4.84;61.14
9525;BME280;15940;48.734;9.112;2023-03-17T03:33:15;96155.75;;;4.81;61.12
9525;BME280;15940;48.734;9.112;2023-03-17T03:35:43;96147.88;;;4.77;60.71
9525;BME280;15940;48.734;9.112;2023-03-17T03:38:10;96153.53;;;4.79;61.24
9525;BME280;15940;48.734;9.112;2023-03-17T03:40:38;96143.44;;;4.74;60.68
9525;BME280;15940;48.734;9.112;2023-03-17T03:43:05;96161.03;;;4.75;60.30
9525;BME280;15940;48.734;9.112;2023-03-17T03:45:33;96163.84;;;4.72;60.48
9525;BME280;15940;48.734;9.112;2023-03-17T03:48:01;96161.03;;;4.75;60.48
9525;BME280;15940;48.734;9.112;2023-03-17T03:50:28;96158.34;;;4.75;59.58
9525;BME280;15940;48.734;9.112;2023-03-17T03:52:54;96158.78;;;4.74;59.43
9525;BME280;15940;48.734;9.112;2023-03-17T03:55:22;96158.50;;;4.72;59.21
9525;BME280;15940;48.734;9.112;2023-03-17T03:57:49;96152.38;;;4.71;59.14
9525;BME280;15940;48.734;9.112;2023-03-17T04:00:17;96153.88;;;4.72;58.97
9525;BME280;15940;48.734;9.112;2023-03-17T04:02:45;96154.78;;;4.69;59.04
9525;BME280;15940;48.734;9.112;2023-03-17T04:05:12;96157.47;;;4.69;59.14
9525;BME280;15940;48.734;9.112;2023-03-17T04:07:40;96150.50;;;4.63;59.06
9525;BME280;15940;48.734;9.112;2023-03-17T04:10:09;96141.03;;;4.52;59.43
9525;BME280;15940;48.734;9.112;2023-03-17T04:12:36;96150.25;;;4.51;59.33
9525;BME280;15940;48.734;9.112;2023-03-17T04:15:05;96147.47;;;4.46;60.22
9525;BME280;15940;48.734;9.112;2023-03-17T04:17:32;96143.94;;;4.40;59.81
9525;BME280;15940;48.734;9.112;2023-03-17T04:20:00;96152.44;;;4.38;59.62
9525;BME280;15940;48.734;9.112;2023-03-17T04:22:27;96152.44;;;4.38;59.12
9525;BME280;15940;48.734;9.112;2023-03-17T04:24:54;96142.91;;;4.37;61.93
9525;BME280;15940;48.734;9.112;2023-03-17T04:27:21;96139.34;;;4.31;61.25
9525;BME280;15940;48.734;9.112;2023-03-17T04:29:48;96141.78;;;4.20;60.81
9525;BME280;15940;48.734;9.112;2023-03-17T04:32:15;96134.34;;;4.15;60.51
9525;BME280;15940;48.734;9.112;2023-03-17T04:34:42;96134.53;;;4.11;60.49
9525;BME280;15940;48.734;9.112;2023-03-17T04:37:11;96135.09;;;4.15;60.56
9525;BME280;15940;48.734;9.112;2023-03-17T04:39:38;96129.75;;;4.15;60.25
9525;BME280;15940;48.734;9.112;2023-03-17T04:42:05;96128.84;;;4.18;60.00
9525;BME280;15940;48.734;9.112;2023-03-17T04:44:33;96128.72;;;4.13;60.43
9525;BME280;15940;48.734;9.112;2023-03-17T04:47:00;96134.63;;;4.17;59.87
9525;BME280;15940;48.734;9.112;2023-03-17T04:49:27;96133.00;;;4.19;60.20
9525;BME280;15940;48.734;9.112;2023-03-17T04:51:54;96126.44;;;4.20;59.62
9525;BME280;15940;48.734;9.112;2023-03-17T04:54:22;96120.91;;;4.24;59.83
9525;BME280;15940;48.734;9.112;2023-03-17T04:56:49;96127.16;;;4.30;60.28
9525;BME280;15940;48.734;9.112;2023-03-17T04:59:17;96118.09;;;4.27;60.83
9525;BME280;15940;48.734;9.112;2023-03-17T05:01:44;96122.25;;;4.28;59.13
9525;BME280;15940;48.734;9.112;2023-03-17T05:04:11;96131.19;;;4.25;59.99
9525;BME280;15940;48.734;9.112;2023-03-17T05:06:39;96120.81;;;4.18;61.10
9525;BME280;15940;48.734;9.112;2023-03-17T05:09:05;96117.81;;;4.16;60.53
9525;BME280;15940;48.734;9.112;2023-03-17T05:11:34;96121.41;;;4.13;60.13
9525;BME280;15940;48.734;9.112;2023-03-17T05:14:01;96116.50;;;4.12;60.38
9525;BME280;15940;48.734;9.112;2023-03-17T05:16:28;96115.94;;;4.08;61.83
9525;BME280;15940;48.734;9.112;2023-03-17T05:18:55;96115.06;;;4.01;60.65
9525;BME280;15940;48.734;9.112;2023-03-17T05:21:22;96119.09;;;3.97;60.79
9525;BME280;15940;48.734;9.112;2023-03-17T05:23:49;96130.72;;;3.94;62.26
9525;BME280;15940;48.734;9.112;2023-03-17T05:26:16;96130.72;;;3.94;62.83
9525;BME280;15940;48.734;9.112;2023-03-17T05:28:44;96122.69;;;3.94;60.89
9525;BME280;15940;48.734;9.112;2023-03-17T05:31:13;96124.88;;;4.05;60.44
9525;BME280;15940;48.734;9.112;2023-03-17T05:33:40;96140.78;;;4.17;60.07
9525;BME280;15940;48.734;9.112;2023-03-17T05:36:07;96128.81;;;4.27;59.83
9525;BME280;15940;48.734;9.112;2023-03-17T05:38:34;96141.75;;;4.29;59.86
9525;BME280;15940;48.734;9.112;2023-03-17T05:41:01;96136.84;;;4.27;61.46
9525;BME280;15940;48.734;9.112;2023-03-17T05:43:28;96141.28;;;4.30;62.01
9525;BME280;15940;48.734;9.112;2023-03-17T05:45:57;96140.22;;;4.37;60.32
9525;BME280;15940;48.734;9.112;2023-03-17T05:48:24;96135.44;;;4.41;60.05
9525;BME280;15940;48.734;9.112;2023-03-17T05:50:51;96129.31;;;4.41;61.41
9525;BME280;15940;48.734;9.112;2023-03-17T05:53:18;96134.56;;;4.35;62.06
9525;BME280;15940;48.734;9.112;2023-03-17T05:55:45;96122.97;;;4.29;61.69
9525;BME280;15940;48.734;9.112;2023-03-17T05:58:12;96121.31;;;4.32;62.61
9525;BME280;15940;48.734;9.112;2023-03-17T06:00:40;96116.88;;;4.28;63.05
9525;BME280;15940;48.734;9.112;2023-03-17T06:03:09;96128.34;;;4.29;62.64
9525;BME280;15940;48.734;9.112;2023-03-17T06:05:36;96121.59;;;4.34;63.30
9525;BME280;15940;48.734;9.112;2023-03-17T06:08:04;96109.41;;;4.33;62.89
9525;BME280;15940;48.734;9.112;2023-03-17T06:10:32;96117.00;;;4.34;62.73
9525;BME280;15940;48.734;9.112;2023-03-17T06:13:00;96119.06;;;4.39;62.54
9525;BME280;15940;48.734;9.112;2023-03-17T06:15:27;96136.69;;;4.55;63.39
9525;BME280;15940;48.734;9.112;2023-03-17T06:17:54;96132.47;;;4.63;62.93
9525;BME280;15940;48.734;9.112;2023-03-17T06:20:22;96126.59;;;4.74;63.20
9525;BME280;15940;48.734;9.112;2023-03-17T06:22:49;96136.69;;;4.79;62.77
9525;BME280;15940;48.734;9.112;2023-03-17T06:25:17;96144.28;;;4.80;61.84
9525;BME280;15940;48.734;9.112;2023-03-17T06:27:44;96140.69;;;4.83;59.14
9525;BME280;15940;48.734;9.112;2023-03-17T06:30:11;96137.09;;;4.86;58.95
9525;BME280;15940;48.734;9.112;2023-03-17T06:32:38;96138.38;;;4.91;58.40
9525;BME280;15940;48.734;9.112;2023-03-17T06:35:06;96134.81;;;4.94;58.53
9525;BME280;15940;48.734;9.112;2023-03-17T06:37:35;96147.97;;;5.07;57.37
9525;BME280;15940;48.734;9.112;2023-03-17T06:40:04;96131.16;;;5.21;57.79
9525;BME280;15940;48.734;9.112;2023-03-17T06:42:33;96133.78;;;5.45;56.75
9525;BME280;15940;48.734;9.112;2023-03-17T06:45:01;96136.47;;;5.74;56.91
9525;BME280;15940;48.734;9.112;2023-03-17T06:47:28;96126.44;;;6.05;55.27
9525;BME280;15940;48.734;9.112;2023-03-17T06:49:55;96124.91;;;6.33;55.12
9525;BME280;15940;48.734;9.112;2023-03-17T06:52:22;96124.63;;;6.66;53.66
9525;BME280;15940;48.734;9.112;2023-03-17T06:54:50;96122.03;;;6.98;52.41
9525;BME280;15940;48.734;9.112;2023-03-17T06:57:17;96127.25;;;7.27;51.92
9525;BME280;15940;48.734;9.112;2023-03-17T06:59:44;96124.84;;;7.55;49.67
9525;BME280;15940;48.734;9.112;2023-03-17T07:02:11;96128.19;;;7.76;50.31
9525;BME280;15940;48.734;9.112;2023-03-17T07:04:38;96132.47;;;7.88;50.12
9525;BME280;15940;48.734;9.112;2023-03-17T07:07:05;96133.56;;;8.02;48.62
9525;BME280;15940;48.734;9.112;2023-03-17T07:09:32;96135.84;;;8.15;48.62
9525;BME280;15940;48.734;9.112;2023-03-17T07:12:01;96144.63;;;8.36;48.18
9525;BME280;15940;48.734;9.112;2023-03-17T07:14:31;96151.06;;;8.49;49.55
9525;BME280;15940;48.734;9.112;2023-03-17T07:17:00;96143.03;;;8.61;47.65
9525;BME280;15940;48.734;9.112;2023-03-17T07:19:27;96145.56;;;8.75;48.38
9525;BME280;15940;48.734;9.112;2023-03-17T07:21:54;96137.75;;;8.83;48.15
9525;BME280;15940;48.734;9.112;2023-03-17T07:24:22;96141.69;;;8.82;48.30
9525;BME280;15940;48.734;9.112;2023-03-17T07:26:49;96137.97;;;8.74;47.89
9525;BME280;15940;48.734;9.112;2023-03-17T07:29:18;96151.22;;;8.77;48.83
9525;BME280;15940;48.734;9.112;2023-03-17T07:31:45;96145.38;;;8.90;48.44
9525;BME280;15940;48.734;9.112;2023-03-17T07:34:13;96142.75;;;9.01;48.08
9525;BME280;15940;48.734;9.112;2023-03-17T07:36:40;96141.31;;;9.11;48.98
9525;BME280;15940;48.734;9.112;2023-03-17T07:39:07;96149.13;;;9.09;49.24
9525;BME280;15940;48.734;9.112;2023-03-17T07:41:35;96144.47;;;9.04;47.34
9525;BME280;15940;48.734;9.112;2023-03-17T07:44:02;96143.75;;;9.15;47.99
9525;BME280;15940;48.734;9.112;2023-03-17T07:46:30;96142.06;;;9.23;47.37
9525;BME280;15940;48.734;9.112;2023-03-17T07:48:57;96132.03;;;9.35;47.98
9525;BME280;15940;48.734;9.112;2023-03-17T07:51:24;96133.06;;;9.60;47.19
9525;BME280;15940;48.734;9.112;2023-03-17T07:53:52;96124.47;;;9.89;47.21
9525;BME280;15940;48.734;9.112;2023-03-17T07:56:25;96127.19;;;10.28;46.31
9525;BME280;15940;48.734;9.112;2023-03-17T07:58:52;96131.06;;;10.55;44.53
9525;BME280;15940;48.734;9.112;2023-03-17T08:01:19;96129.28;;;10.80;44.20
9525;BME280;15940;48.734;9.112;2023-03-17T08:03:47;96133.63;;;11.06;44.12
9525;BME280;15940;48.734;9.112;2023-03-17T08:06:14;96128.56;;;11.27;43.89
9525;BME280;15940;48.734;9.112;2023-03-17T08:08:41;96136.56;;;11.55;43.73
9525;BME280;15940;48.734;9.112;2023-03-17T08:11:08;96132.72;;;11.80;42.75
9525;BME280;15940;48.734;9.112;2023-03-17T08:13:36;96138.25;;;11.99;42.03
9525;BME280;15940;48.734;9.112;2023-03-17T08:16:03;96130.06;;;12.35;41.76
9525;BME280;15940;48.734;9.112;2023-03-17T08:18:31;96133.16;;;12.93;40.74
9525;BME280;15940;48.734;9.112;2023-03-17T08:21:00;96138.19;;;12.83;39.53
9525;BME280;15940;48.734;9.112;2023-03-17T08:23:26;96130.00;;;12.65;39.91
9525;BME280;15940;48.734;9.112;2023-03-17T08:25:56;96132.09;;;12.77;40.60
9525;BME280;15940;48.734;9.112;2023-03-17T08:28:23;96137.78;;;12.79;40.01
9525;BME280;15940;48.734;9.112;2023-03-17T08:30:50;96131.25;;;12.64;39.82
9525;BME280;15940;48.734;9.112;2023-03-17T08:33:17;96137.06;;;12.49;40.63
9525;BME280;15940;48.734;9.112;2023-03-17T08:35:44;96132.91;;;12.72;40.97
9525;BME280;15940;48.734;9.112;2023-03-17T08:38:13;96123.59;;;12.86;40.46
9525;BME280;15940;48.734;9.112;2023-03-17T08:40:40;96122.69;;;12.78;40.67
9525;BME280;15940;48.734;9.112;2023-03-17T08:43:07;96134.84;;;13.39;41.73
9525;BME280;15940;48.734;9.112;2023-03-17T08:45:34;96123.28;;;14.03;40.57
9525;BME280;15940;48.734;9.112;2023-03-17T08:48:01;96123.91;;;14.81;39.70
9525;BME280;15940;48.734;9.112;2023-03-17T08:50:28;96123.25;;;15.01;37.34
9525;BME280;15940;48.734;9.112;2023-03-17T08:52:56;96119.50;;;14.91;38.73
9525;BME280;15940;48.734;9.112;2023-03-17T08:55:24;96120.88;;;14.71;37.40
9525;BME280;15940;48.734;9.112;2023-03-17T08:57:51;96118.00;;;15.17;38.84
9525;BME280;15940;48.734;9.112;2023-03-17T09:00:19;96122.06;;;15.23;37.20
9525;BME280;15940;48.734;9.112;2023-03-17T09:02:47;96118.13;;;14.58;36.59
9525;BME280;15940;48.734;9.112;2023-03-17T09:05:16;96111.13;;;14.63;37.18
9525;BME280;15940;48.734;9.112;2023-03-17T09:07:44;96115.13;;;15.22;38.37
9525;BME280;15940;48.734;9.112;2023-03-17T09:10:11;96111.91;;;15.58;34.92
9525;BME280;15940;48.734;9.112;2023-03-17T09:12:42;96105.56;;;16.46;35.50
9525;BME280;15940;48.734;9.112;2023-03-17T09:15:11;96111.97;;;17.13;34.66
9525;BME280;15940;48.734;9.112;2023-03-17T09:17:38;96115.16;;;18.15;33.15
9525;BME280;15940;48.734;9.112;2023-03-17T09:20:07;96116.44;;;18.29;33.14
9525;BME280;15940;48.734;9.112;2023-03-17T09:22:36;96107.81;;;17.87;31.69
9525;BME280;15940;48.734;9.112;2023-03-17T09:25:04;96111.06;;;17.11;32.12
9525;BME280;15940;48.734;9.112;2023-03-17T09:27:31;96109.69;;;16.61;32.37
9525;BME280;15940;48.734;9.112;2023-03-17T09:29:59;96108.94;;;16.11;33.79
9525;BME280;15940;48.734;9.112;2023-03-17T09:32:26;96099.81;;;15.66;35.32
9525;BME280;15940;48.734;9.112;2023-03-17T09:34:53;96106.53;;;15.65;35.20
9525;BME280;15940;48.734;9.112;2023-03-17T09:37:20;96121.22;;;15.76;36.34
9525;BME280;15940;48.734;9.112;2023-03-17T09:39:47;96114.22;;;15.54;35.57
9525;BME280;15940;48.734;9.112;2023-03-17T09:42:33;96114.63;;;15.58;36.02
9525;BME280;15940;48.734;9.112;2023-03-17T09:45:24;96113.47;;;15.87;35.11
9525;BME280;15940;48.734;9.112;2023-03-17T09:48:21;96115.03;;;15.96;35.91
9525;BME280;15940;48.734;9.112;2023-03-17T09:50:54;96110.22;;;16.10;35.52
9525;BME280;15940;48.734;9.112;2023-03-17T09:53:27;96109.56;;;16.45;33.52
9525;BME280;15940;48.734;9.112;2023-03-17T09:56:01;96112.97;;;16.95;35.07
9525;BME280;15940;48.734;9.112;2023-03-17T09:58:33;96117.06;;;17.09;33.68
9525;BME280;15940;48.734;9.112;2023-03-17T10:01:02;96110.59;;;16.92;33.44
9525;BME280;15940;48.734;9.112;2023-03-17T10:03:31;96122.03;;;16.54;35.15
9525;BME280;15940;48.734;9.112;2023-03-17T10:06:14;96112.47;;;16.19;35.70
9525;BME280;15940;48.734;9.112;2023-03-17T10:08:50;96111.41;;;16.01;35.72
9525;BME280;15940;48.734;9.112;2023-03-17T10:11:30;96110.75;;;15.87;35.49
9525;BME280;15940;48.734;9.112;2023-03-17T10:14:03;96109.63;;;15.83;36.58
9525;BME280;15940;48.734;9.112;2023-03-17T10:16:39;96105.94;;;15.80;35.54
9525;BME280;15940;48.734;9.112;2023-03-17T10:19:17;96103.63;;;16.05;37.07
9525;BME280;15940;48.734;9.112;2023-03-17T10:21:52;96097.53;;;16.20;36.46
9525;BME280;15940;48.734;9.112;2023-03-17T10:24:20;96091.50;;;16.14;37.16
9525;BME280;15940;48.734;9.112;2023-03-17T10:26:50;96092.72;;;16.34;35.08
9525;BME280;15940;48.734;9.112;2023-03-17T10:29:20;96092.69;;;16.54;35.91
9525;BME280;15940;48.734;9.112;2023-03-17T10:31:52;96090.56;;;16.97;36.08
9525;BME280;15940;48.734;9.112;2023-03-17T10:34:23;96091.72;;;17.09;36.51
9525;BME280;15940;48.734;9.112;2023-03-17T10:36:55;96093.91;;;17.10;35.49
9525;BME280;15940;48.734;9.112;2023-03-17T10:39:25;96086.69;;;17.28;34.59
9525;BME280;15940;48.734;9.112;2023-03-17T10:41:56;96077.25;;;17.45;34.28
9525;BME280;15940;48.734;9.112;2023-03-17T10:44:49;96074.59;;;17.98;34.78
9525;BME280;15940;48.734;9.112;2023-03-17T10:47:33;96078.94;;;18.54;33.31
9525;BME280;15940;48.734;9.112;2023-03-17T10:50:17;96085.00;;;18.30;34.02
9525;BME280;15940;48.734;9.112;2023-03-17T10:52:46;96084.41;;;18.62;35.24
9525;BME280;15940;48.734;9.112;2023-03-17T10:55:16;96072.72;;;18.46;34.68
9525;BME280;15940;48.734;9.112;2023-03-17T10:57:52;96087.19;;;18.09;33.24
9525;BME280;15940;48.734;9.112;2023-03-17T11:00:28;96076.06;;;17.91;34.23
9525;BME280;15940;48.734;9.112;2023-03-17T11:03:08;96080.25;;;18.00;37.34
9525;BME280;15940;48.734;9.112;2023-03-17T11:05:36;96072.94;;;17.72;35.43
9525;BME280;15940;48.734;9.112;2023-03-17T11:08:09;96063.06;;;18.07;36.71
9525;BME280;15940;48.734;9.112;2023-03-17T11:10:40;96058.16;;;18.06;34.88
9525;BME280;15940;48.734;9.112;2023-03-17T11:13:08;96060.00;;;18.11;33.88
9525;BME280;15940;48.734;9.112;2023-03-17T11:15:39;96055.75;;;18.33;34.66
9525;BME280;15940;48.734;9.112;2023-03-17T11:18:13;96058.31;;;18.15;35.04
9525;BME280;15940;48.734;9.112;2023-03-17T11:20:46;96059.56;;;18.45;36.05
9525;BME280;15940;48.734;9.112;2023-03-17T11:23:56;96049.13;;;18.59;33.99
9525;BME280;15940;48.734;9.112;2023-03-17T11:26:44;96058.31;;;18.38;34.33
9525;BME280;15940;48.734;9.112;2023-03-17T11:29:29;96051.22;;;18.12;35.30
9525;BME280;15940;48.734;9.112;2023-03-17T11:32:11;96043.91;;;18.07;36.71
9525;BME280;15940;48.734;9.112;2023-03-17T11:34:56;96054.66;;;18.28;37.09
9525;BME280;15940;48.734;9.112;2023-03-17T11:37:44;96044.78;;;18.40;36.31
9525;BME280;15940;48.734;9.112;2023-03-17T11:40:19;96030.13;;;18.38;37.57
9525;BME280;15940;48.734;9.112;2023-03-17T11:42:54;96031.75;;;18.56;35.16
9525;BME280;15940;48.734;9.112;2023-03-17T11:45:35;96033.03;;;18.70;35.17
9525;BME280;15940;48.734;9.112;2023-03-17T11:48:17;96029.44;;;19.00;35.47
9525;BME280;15940;48.734;9.112;2023-03-17T11:50:56;96021.19;;;19.33;35.67
9525;BME280;15940;48.734;9.112;2023-03-17T11:53:49;96031.69;;;19.52;34.93
9525;BME280;15940;48.734;9.112;2023-03-17T11:56:26;96027.72;;;19.45;36.04
9525;BME280;15940;48.734;9.112;2023-03-17T11:59:00;96014.47;;;19.59;36.63
9525;BME280;15940;48.734;9.112;2023-03-17T12:01:47;96019.03;;;19.64;36.13
9525;BME280;15940;48.734;9.112;2023-03-17T12:04:21;96017.69;;;19.40;37.08
9525;BME280;15940;48.734;9.112;2023-03-17T12:06:57;96023.88;;;19.16;36.71
9525;BME280;15940;48.734;9.112;2023-03-17T12:09:30;96011.66;;;19.01;36.38
9525;BME280;15940;48.734;9.112;2023-03-17T12:12:00;96012.81;;;18.91;35.13
9525;BME280;15940;48.734;9.112;2023-03-17T12:14:32;96003.41;;;19.09;34.72
9525;BME280;15940;48.734;9.112;2023-03-17T12:17:05;96000.81;;;19.11;34.57
9525;BME280;15940;48.734;9.112;2023-03-17T12:19:43;96009.31;;;19.30;35.34
9525;BME280;15940;48.734;9.112;2023-03-17T12:22:21;96009.47;;;19.32;35.38
9525;BME280;15940;48.734;9.112;2023-03-17T12:25:02;96008.63;;;19.55;35.14
9525;BME280;15940;48.734;9.112;2023-03-17T12:27:37;95998.44;;;19.73;36.58
9525;BME280;15940;48.734;9.112;2023-03-17T12:30:19;96000.28;;;19.95;35.80
9525;BME280;15940;48.734;9.112;2023-03-17T12:32:55;96004.38;;;19.86;33.47
9525;BME280;15940;48.734;9.112;2023-03-17T12:35:27;95997.53;;;19.70;35.39
9525;BME280;15940;48.734;9.112;2023-03-17T12:37:59;95994.97;;;19.72;33.85
9525;BME280;15940;48.734;9.112;2023-03-17T12:40:33;95990.22;;;19.73;36.01
9525;BME280;15940;48.734;9.112;2023-03-17T12:43:21;95996.88;;;19.62;34.41
9525;BME280;15940;48.734;9.112;2023-03-17T12:46:13;95993.41;;;19.61;34.54
9525;BME280;15940;48.734;9.112;2023-03-17T12:52:05;95990.88;;;19.81;33.72
9525;BME280;15940;48.734;9.112;2023-03-17T12:54:39;95995.66;;;19.48;34.73
9525;BME280;15940;48.734;9.112;2023-03-17T12:57:16;95993.94;;;19.35;33.99
9525;BME280;15940;48.734;9.112;2023-03-17T12:59:45;95984.13;;;19.49;34.83
9525;BME280;15940;48.734;9.112;2023-03-17T13:02:31;95985.22;;;19.21;36.32
9525;BME280;15940;48.734;9.112;2023-03-17T13:05:06;95982.81;;;19.25;35.12
9525;BME280;15940;48.734;9.112;2023-03-17T13:07:40;95966.28;;;19.33;36.34
9525;BME280;15940;48.734;9.112;2023-03-17T13:10:34;95966.13;;;19.31;36.06
9525;BME280;15940;48.734;9.112;2023-03-17T13:13:21;95970.00;;;19.53;35.41
9525;BME280;15940;48.734;9.112;2023-03-17T13:15:58;95968.13;;;19.80;34.81
9525;BME280;15940;48.734;9.112;2023-03-17T13:18:48;95950.09;;;20.12;36.24
9525;BME280;15940;48.734;9.112;2023-03-17T13:21:23;95952.44;;;20.15;35.06
9525;BME280;15940;48.734;9.112;2023-03-17T13:24:23;95959.06;;;20.12;34.69
9525;BME280;15940;48.734;9.112;2023-03-17T13:27:02;95950.94;;;19.97;34.56
9525;BME280;15940;48.734;9.112;2023-03-17T13:29:46;95945.31;;;19.95;35.30
9525;BME280;15940;48.734;9.112;2023-03-17T13:32:36;95946.22;;;19.48;35.20
9525;BME280;15940;48.734;9.112;2023-03-17T13:35:19;95939.78;;;19.53;32.42
9525;BME280;15940;48.734;9.112;2023-03-17T13:38:21;95938.28;;;19.59;33.37
9525;BME280;15940;48.734;9.112;2023-03-17T13:41:37;95934.81;;;19.59;32.78